ヌクアロファ の空港の天気 - METARとTAF

ファアモツ国際空港 ( NFTF / TBU ) - トンガ ヌクアロファ
飛行場実況気象(Metar)
観測時間08/08 16:00 TOT (08/08 03:00 UTC)
風向・風速南 4m/s
視程10km以上
天気現象
少しの雲 雲底高度 610m
気温24℃
湿度65%
気圧1013hPa
METARNFTF 080300Z 19007KT 9999 FEW020 24/17 Q1013
過去の天気等 Google飛行場航空写真 Wunderground天気予報

過去48時間のMETAR

飛行場予報(TAF)
発表時間: 8/08 12:03 TOT (8/07 23:03 UTC)
予報対象時間: 8日13時 TOT ~ 9日13時 TOT
風向・風速南 3m/s
視程10km以上
全天の4割程度の雲 雲底高度 550m
TAF NFTF 072303Z 0800/0824 17006KT 9999 SCT018